createdAt,value
2019-03-28T00:01:23.390Z,31.47
2019-03-28T00:04:12.277Z,32.63
2019-03-28T00:07:01.096Z,35.10
2019-03-28T00:09:49.883Z,37.00
2019-03-28T00:12:38.704Z,32.93
2019-03-28T00:15:27.496Z,31.20
2019-03-28T00:18:16.320Z,42.80
2019-03-28T00:21:24.203Z,30.60
2019-03-28T00:24:32.040Z,32.97
2019-03-28T00:27:21.224Z,33.20
2019-03-28T00:33:05.647Z,33.27
2019-03-28T00:35:47.267Z,31.47
2019-03-28T00:38:36.095Z,37.63
2019-03-28T00:41:24.919Z,30.97
2019-03-28T00:44:13.710Z,30.20
2019-03-28T00:47:02.529Z,34.40
2019-03-28T00:49:51.329Z,34.77
2019-03-28T00:52:40.147Z,39.17
2019-03-28T00:55:28.970Z,37.27
2019-03-28T00:58:17.744Z,32.60
2019-03-28T01:01:06.620Z,31.93
2019-03-28T01:06:49.624Z,34.60
2019-03-28T01:09:38.418Z,30.87
2019-03-28T01:12:27.587Z,34.83
2019-03-28T01:15:16.362Z,38.80
2019-03-28T01:18:05.185Z,33.50
2019-03-28T01:20:54.270Z,29.23
2019-03-28T01:23:43.093Z,29.23
2019-03-28T01:26:31.894Z,32.80
2019-03-28T01:29:20.746Z,25.60
2019-03-28T01:32:09.546Z,30.90
2019-03-28T01:34:58.384Z,26.50
2019-03-28T01:37:39.794Z,31.77
2019-03-28T01:40:28.603Z,32.53
2019-03-28T01:43:17.411Z,28.77
2019-03-28T01:46:06.526Z,34.47
2019-03-28T01:48:55.329Z,36.80
2019-03-28T01:51:44.139Z,32.50
2019-03-28T01:54:32.950Z,54.50
2019-03-28T01:57:21.750Z,29.23
2019-03-28T02:00:31.478Z,34.03
2019-03-28T02:03:20.278Z,33.80
2019-03-28T02:06:09.267Z,33.40
2019-03-28T02:08:59.615Z,33.70
2019-03-28T02:11:48.435Z,32.97
2019-03-28T02:14:37.232Z,35.70
2019-03-28T02:17:26.050Z,32.30
2019-03-28T02:20:15.004Z,29.43
2019-03-28T02:23:03.830Z,28.20
2019-03-28T02:25:52.633Z,29.57
2019-03-28T02:28:41.465Z,26.17
2019-03-28T02:31:30.265Z,29.33
2019-03-28T02:34:19.077Z,31.63
2019-03-28T02:37:00.521Z,26.53
2019-03-28T02:39:49.354Z,38.47
2019-03-28T02:42:39.889Z,37.15
2019-03-28T02:45:29.917Z,33.07
2019-03-28T02:48:19.175Z,29.63
2019-03-28T02:51:07.988Z,28.27
2019-03-28T02:54:15.829Z,29.53
2019-03-28T02:57:04.684Z,34.20
2019-03-28T02:59:54.654Z,31.10
2019-03-28T03:02:44.082Z,34.90
2019-03-28T03:05:32.866Z,28.17
2019-03-28T03:08:21.675Z,30.20
2019-03-28T03:11:10.476Z,29.80
2019-03-28T03:13:59.281Z,37.13
2019-03-28T03:16:48.877Z,36.77
2019-03-28T03:19:38.611Z,39.70
2019-03-28T03:22:28.607Z,35.53
2019-03-28T03:25:18.274Z,38.37
2019-03-28T03:28:07.100Z,36.10
2019-03-28T03:30:55.929Z,34.97
2019-03-28T03:33:44.707Z,35.80
2019-03-28T03:36:26.613Z,33.60
2019-03-28T03:39:15.410Z,31.60
2019-03-28T03:42:04.225Z,33.63
2019-03-28T03:44:53.023Z,40.23
2019-03-28T03:47:41.893Z,35.93
2019-03-28T03:50:30.777Z,34.33
2019-03-28T03:53:19.668Z,35.30
2019-03-28T03:56:08.448Z,33.60
2019-03-28T04:01:51.609Z,35.43
2019-03-28T04:04:40.434Z,35.63
2019-03-28T04:07:29.228Z,44.93
2019-03-28T04:10:18.043Z,47.43
2019-03-28T04:13:06.861Z,35.83
2019-03-28T04:15:55.687Z,35.50
2019-03-28T04:18:44.471Z,36.50
2019-03-28T04:24:27.780Z,58.43
2019-03-28T04:27:16.598Z,41.20
2019-03-28T04:30:26.302Z,32.80
2019-03-28T04:33:15.119Z,38.10
2019-03-28T04:35:56.570Z,36.57
2019-03-28T04:38:45.385Z,36.63
2019-03-28T04:41:34.198Z,36.63
2019-03-28T04:47:17.543Z,32.23
2019-03-28T04:53:21.841Z,35.10
2019-03-28T04:56:10.990Z,36.17
2019-03-28T04:58:59.806Z,31.27
2019-03-28T05:02:01.031Z,33.28
2019-03-28T05:04:39.234Z,31.80
2019-03-28T05:07:28.055Z,35.03
2019-03-28T05:13:11.536Z,38.87
2019-03-28T05:16:00.401Z,32.63
2019-03-28T05:18:49.197Z,34.63
2019-03-28T05:21:38.020Z,34.50
2019-03-28T05:24:26.814Z,47.10
2019-03-28T05:27:16.727Z,39.92
2019-03-28T05:30:27.070Z,34.80
2019-03-28T05:33:15.914Z,37.10
2019-03-28T05:36:04.714Z,34.60
2019-03-28T05:38:46.387Z,34.23
2019-03-28T05:41:35.184Z,35.47
2019-03-28T05:44:23.997Z,40.17
2019-03-28T05:47:12.829Z,30.10
2019-03-28T05:50:01.656Z,36.17
2019-03-28T05:52:50.486Z,34.80
2019-03-28T05:55:39.353Z,32.40
2019-03-28T05:58:28.181Z,30.13
2019-03-28T06:01:17.056Z,31.93
2019-03-28T06:04:05.881Z,42.00
2019-03-28T06:06:54.701Z,39.47
2019-03-28T06:09:44.517Z,31.17
2019-03-28T06:12:34.056Z,38.50
2019-03-28T06:15:22.841Z,34.57
2019-03-28T06:18:30.691Z,34.30
2019-03-28T06:21:19.502Z,37.50
2019-03-28T06:24:08.323Z,31.90
2019-03-28T06:26:57.222Z,35.60
2019-03-28T06:29:46.018Z,31.57
2019-03-28T06:32:42.879Z,39.73
2019-03-28T06:35:25.368Z,26.20
2019-03-28T06:38:07.080Z,31.40
2019-03-28T06:40:55.912Z,29.20
2019-03-28T06:43:44.707Z,28.10
2019-03-28T06:46:33.522Z,38.07
2019-03-28T06:49:41.340Z,37.57
2019-03-28T06:52:30.164Z,28.77
2019-03-28T06:55:18.957Z,31.63
2019-03-28T06:58:07.776Z,35.90
2019-03-28T07:00:56.573Z,25.57
2019-03-28T07:03:47.376Z,26.57
2019-03-28T07:06:35.921Z,29.17
2019-03-28T07:09:24.750Z,29.63
2019-03-28T07:12:13.554Z,28.50
2019-03-28T07:15:02.680Z,23.73
2019-03-28T07:17:51.533Z,26.00
2019-03-28T07:20:40.344Z,25.60
2019-03-28T07:23:29.223Z,25.53
2019-03-28T07:26:18.026Z,24.37
2019-03-28T07:29:06.853Z,35.97
2019-03-28T07:31:55.655Z,24.50
2019-03-28T07:34:44.470Z,26.70
2019-03-28T07:37:28.019Z,23.80
2019-03-28T07:40:16.743Z,28.23
2019-03-28T07:43:05.643Z,25.83
2019-03-28T07:45:54.475Z,27.37
2019-03-28T07:49:02.316Z,23.30
2019-03-28T07:51:51.218Z,27.90
2019-03-28T07:54:40.064Z,25.40
2019-03-28T07:57:28.869Z,27.80
2019-03-28T08:00:17.751Z,27.20
2019-03-28T08:03:06.610Z,28.73
2019-03-28T08:05:55.383Z,30.77
2019-03-28T08:08:44.356Z,22.67
2019-03-28T08:11:34.911Z,33.60
2019-03-28T08:14:25.283Z,35.17
2019-03-28T08:17:14.166Z,31.10
2019-03-28T08:23:36.543Z,29.90
2019-03-28T08:26:25.710Z,31.53
2019-03-28T08:29:14.528Z,39.93
2019-03-28T08:34:59.312Z,27.40
2019-03-28T08:37:40.903Z,27.87
2019-03-28T08:40:49.067Z,20.90
2019-03-28T08:43:37.871Z,20.60
2019-03-28T08:46:26.704Z,22.47
2019-03-28T08:49:15.512Z,20.33
2019-03-28T08:52:04.343Z,22.30
2019-03-28T08:54:53.151Z,19.67
2019-03-28T08:57:41.971Z,16.43
2019-03-28T09:00:35.264Z,14.60
2019-03-28T09:03:21.650Z,17.30
2019-03-28T09:06:10.457Z,24.03
2019-03-28T09:08:59.274Z,14.57
2019-03-28T09:11:48.090Z,21.10
2019-03-28T09:14:37.077Z,18.57
2019-03-28T09:17:27.459Z,23.37
2019-03-28T09:20:16.353Z,17.90
2019-03-28T09:23:05.234Z,16.50
2019-03-28T09:25:54.064Z,19.53
2019-03-28T09:28:42.865Z,19.67
2019-03-28T09:31:31.731Z,20.83
2019-03-28T09:34:20.511Z,20.17
2019-03-28T09:37:02.050Z,26.70
2019-03-28T09:39:50.853Z,19.40
2019-03-28T09:42:39.678Z,20.30
2019-03-28T09:45:28.568Z,18.70
2019-03-28T09:48:17.373Z,20.47
2019-03-28T09:51:25.266Z,24.27
2019-03-28T09:54:14.040Z,17.17
2019-03-28T09:57:02.870Z,18.80
2019-03-28T09:59:51.672Z,20.57
2019-03-28T10:02:43.877Z,24.97
2019-03-28T10:05:31.086Z,14.07
2019-03-28T10:08:19.915Z,17.50
2019-03-28T10:11:08.829Z,17.97
2019-03-28T10:13:57.623Z,18.37
2019-03-28T10:16:46.524Z,17.67
2019-03-28T10:19:35.351Z,16.73
2019-03-28T10:22:24.179Z,21.30
2019-03-28T10:25:14.494Z,18.90
2019-03-28T10:28:03.768Z,17.50
2019-03-28T10:30:45.514Z,27.50
2019-03-28T10:33:34.313Z,22.40
2019-03-28T10:36:16.447Z,21.47
2019-03-28T10:39:26.175Z,14.40
2019-03-28T10:42:14.995Z,18.00
2019-03-28T10:48:19.475Z,23.80
2019-03-28T10:51:09.353Z,27.37
2019-03-28T10:53:58.176Z,21.23
2019-03-28T10:56:52.130Z,25.30
2019-03-28T10:59:37.514Z,21.07
2019-03-28T11:02:28.784Z,14.67
2019-03-28T11:05:16.929Z,24.63
2019-03-28T11:08:05.736Z,14.17
2019-03-28T11:10:54.576Z,26.40
2019-03-28T11:13:43.370Z,17.70
2019-03-28T11:16:32.216Z,20.50
2019-03-28T11:19:21.025Z,19.47
2019-03-28T11:22:16.819Z,23.17
2019-03-28T11:25:26.557Z,15.40
2019-03-28T11:28:15.832Z,15.43
2019-03-28T11:31:05.943Z,14.07
2019-03-28T11:33:54.720Z,14.70
2019-03-28T11:36:43.548Z,14.87
2019-03-28T11:39:24.899Z,18.30
2019-03-28T11:42:13.736Z,18.87
2019-03-28T11:45:02.615Z,19.90
2019-03-28T11:47:51.439Z,21.83
2019-03-28T11:50:40.299Z,21.30
2019-03-28T11:53:29.078Z,22.90
2019-03-28T11:56:17.880Z,25.40
2019-03-28T11:59:07.025Z,19.90
2019-03-28T12:02:02.101Z,18.23
2019-03-28T12:04:46.373Z,18.07
2019-03-28T12:07:35.178Z,17.53
2019-03-28T12:10:24.303Z,16.30
2019-03-28T12:13:13.089Z,15.27
2019-03-28T12:16:01.920Z,22.33
2019-03-28T12:18:50.745Z,21.60
2019-03-28T12:21:39.576Z,19.90
2019-03-28T12:24:47.420Z,28.07
2019-03-28T12:27:36.381Z,17.70
2019-03-28T12:30:25.185Z,17.43
2019-03-28T12:33:14.010Z,23.53
2019-03-28T12:36:02.823Z,17.27
2019-03-28T12:38:51.645Z,22.27
2019-03-28T12:41:40.462Z,14.53
2019-03-28T12:44:29.287Z,27.67
2019-03-28T12:47:18.098Z,18.97
2019-03-28T12:50:27.848Z,15.20
2019-03-28T12:53:16.651Z,19.30
2019-03-28T12:56:05.500Z,19.43
2019-03-28T12:58:54.293Z,17.50
2019-03-28T13:04:36.927Z,20.93
2019-03-28T13:07:25.774Z,14.20
2019-03-28T13:10:33.904Z,12.00
2019-03-28T13:13:22.720Z,12.77
2019-03-28T13:16:11.537Z,15.07
2019-03-28T13:19:00.361Z,17.37
2019-03-28T13:21:49.173Z,13.40
2019-03-28T13:24:38.060Z,15.33
2019-03-28T13:27:26.887Z,17.47
2019-03-28T13:30:15.955Z,14.07
2019-03-28T13:32:57.968Z,15.83
2019-03-28T13:35:46.807Z,17.90
2019-03-28T13:38:35.616Z,17.13
2019-03-28T13:41:24.444Z,14.90
2019-03-28T13:44:13.245Z,16.77
2019-03-28T13:47:02.064Z,16.90
2019-03-28T13:49:50.891Z,14.53
2019-03-28T13:52:40.052Z,15.10
2019-03-28T13:55:28.875Z,15.17
2019-03-28T13:58:17.706Z,22.80
2019-03-28T14:01:06.534Z,13.30
2019-03-28T14:03:55.353Z,18.00
2019-03-28T14:06:44.172Z,19.10
2019-03-28T14:09:32.972Z,15.97
2019-03-28T14:12:23.311Z,17.90
2019-03-28T14:15:12.492Z,15.50
2019-03-28T14:18:20.329Z,15.80
2019-03-28T14:24:16.904Z,15.13
2019-03-28T14:27:05.722Z,14.90
2019-03-28T14:29:54.524Z,13.20
2019-03-28T14:32:34.334Z,12.27
2019-03-28T14:35:23.139Z,17.23
2019-03-28T14:38:12.036Z,18.43
2019-03-28T14:41:00.936Z,16.27
2019-03-28T14:43:49.795Z,14.20
2019-03-28T14:46:38.640Z,25.33
2019-03-28T14:49:27.592Z,16.50
2019-03-28T14:52:16.459Z,16.50
2019-03-28T14:55:26.222Z,15.87
2019-03-28T14:58:15.283Z,13.30
2019-03-28T15:01:04.105Z,14.90
2019-03-28T15:03:53.154Z,12.70
2019-03-28T15:06:42.049Z,14.20
2019-03-28T15:09:31.224Z,12.20
2019-03-28T15:12:39.175Z,17.10
2019-03-28T15:15:28.056Z,15.97
2019-03-28T15:18:09.809Z,17.27
2019-03-28T15:20:58.706Z,22.40
2019-03-28T15:23:47.534Z,22.67
2019-03-28T15:26:36.540Z,14.93
2019-03-28T15:29:27.013Z,12.57
2019-03-28T15:32:34.948Z,15.40
2019-03-28T15:35:23.855Z,13.90
2019-03-28T15:38:13.664Z,13.30
2019-03-28T15:41:03.651Z,17.20
2019-03-28T15:44:11.590Z,16.97
2019-03-28T15:47:00.477Z,15.50
2019-03-28T15:49:49.361Z,21.70
2019-03-28T15:55:45.929Z,18.90
2019-03-28T15:58:34.781Z,15.40
2019-03-28T16:01:23.634Z,13.00
2019-03-28T16:04:12.454Z,12.73
2019-03-28T16:07:01.364Z,12.58
2019-03-28T16:09:50.207Z,14.60
2019-03-28T16:12:39.416Z,12.30
2019-03-28T16:15:28.404Z,12.80
2019-03-28T16:18:17.289Z,17.57
2019-03-28T16:20:59.224Z,16.93
2019-03-28T16:23:48.116Z,13.20
2019-03-28T16:26:36.895Z,20.90
2019-03-28T16:29:25.710Z,11.20
2019-03-28T16:32:16.204Z,13.70
2019-03-28T16:35:25.969Z,17.90
2019-03-28T16:38:14.776Z,14.67
2019-03-28T16:41:03.622Z,12.10
2019-03-28T16:43:52.446Z,15.83
2019-03-28T16:49:35.331Z,14.57
2019-03-28T16:52:24.163Z,13.60
2019-03-28T16:55:25.550Z,20.10
2019-03-28T16:58:03.536Z,16.73
2019-03-28T17:00:52.337Z,15.57
2019-03-28T17:03:41.166Z,16.30
2019-03-28T17:06:30.041Z,13.90
2019-03-28T17:09:18.863Z,19.27
2019-03-28T17:12:07.737Z,11.73
2019-03-28T17:14:56.587Z,14.97
2019-03-28T17:17:45.388Z,18.27
2019-03-28T17:20:27.005Z,15.27
2019-03-28T17:23:15.898Z,16.77
2019-03-28T17:26:04.764Z,15.40
2019-03-28T17:28:53.598Z,18.67
2019-03-28T17:31:42.468Z,14.80
2019-03-28T17:34:35.233Z,46.80
2019-03-28T17:37:21.787Z,20.87
2019-03-28T17:40:10.680Z,24.80
2019-03-28T17:43:18.593Z,34.03
2019-03-28T17:49:16.870Z,23.77
2019-03-28T17:52:05.675Z,31.63
2019-03-28T17:54:54.533Z,36.90
2019-03-28T17:58:02.469Z,25.92
2019-03-28T18:00:51.300Z,16.17
2019-03-28T18:03:40.091Z,16.87
2019-03-28T18:06:29.040Z,14.70
2019-03-28T18:09:17.872Z,14.70
2019-03-28T18:12:06.690Z,19.80
2019-03-28T18:14:55.513Z,21.90
2019-03-28T18:17:44.321Z,16.27
2019-03-28T18:20:25.615Z,18.07
2019-03-28T18:23:14.455Z,30.53
2019-03-28T18:26:03.277Z,26.90
2019-03-28T18:28:52.166Z,27.73
2019-03-28T18:31:50.397Z,29.40
2019-03-28T18:37:25.747Z,18.37
2019-03-28T18:40:14.644Z,24.40
2019-03-28T18:43:03.513Z,22.47
2019-03-28T18:45:52.424Z,27.20
2019-03-28T18:48:41.224Z,26.80
2019-03-28T18:51:30.255Z,30.70
2019-03-28T18:54:20.332Z,28.70
2019-03-28T18:57:09.586Z,29.60
2019-03-28T18:59:58.382Z,20.30
2019-03-28T19:02:47.211Z,22.87
2019-03-28T19:05:36.098Z,18.87
2019-03-28T19:08:43.940Z,17.10
2019-03-28T19:11:25.932Z,15.63
2019-03-28T19:13:55.427Z,15.87
2019-03-28T19:16:44.244Z,25.27
2019-03-28T19:19:39.225Z,14.63
2019-03-28T19:22:23.888Z,15.17
2019-03-28T19:25:14.394Z,18.00
2019-03-28T19:28:03.267Z,15.87
2019-03-28T19:30:52.078Z,12.47
2019-03-28T19:33:41.008Z,16.27
2019-03-28T19:36:31.504Z,13.20
2019-03-28T19:39:39.688Z,15.80
2019-03-28T19:42:28.564Z,11.20
2019-03-28T19:45:38.369Z,18.43
2019-03-28T19:48:27.397Z,17.57
2019-03-28T19:51:16.216Z,19.40
2019-03-28T19:54:05.136Z,17.40
2019-03-28T19:56:57.173Z,15.93
2019-03-28T19:59:44.485Z,15.37
2019-03-28T20:02:33.844Z,11.27
2019-03-28T20:05:24.155Z,13.90
2019-03-28T20:08:15.783Z,14.97
2019-03-28T20:13:55.846Z,13.87
2019-03-28T20:16:44.655Z,14.60
2019-03-28T20:19:33.470Z,14.17
2019-03-28T20:22:22.291Z,13.70
2019-03-28T20:25:11.246Z,17.50
2019-03-28T20:28:00.116Z,19.87
2019-03-28T20:30:48.939Z,11.87
2019-03-28T20:33:37.895Z,19.40
2019-03-28T20:36:37.504Z,13.90
2019-03-28T20:39:18.789Z,13.60
2019-03-28T20:42:08.803Z,17.03
2019-03-28T20:44:58.269Z,13.80
2019-03-28T20:47:47.104Z,17.03
2019-03-28T20:50:35.910Z,17.10
2019-03-28T20:53:24.811Z,14.43
2019-03-28T20:56:13.615Z,19.70
2019-03-28T20:59:02.434Z,17.00
2019-03-28T21:01:51.231Z,20.40
2019-03-28T21:04:40.119Z,14.83
2019-03-28T21:07:28.925Z,13.30
2019-03-28T21:10:37.073Z,15.87
2019-03-28T21:13:18.385Z,19.53
2019-03-28T21:21:56.143Z,17.70
2019-03-28T21:24:45.098Z,16.37
2019-03-28T21:27:33.913Z,14.47
2019-03-28T21:30:22.780Z,16.40
2019-03-28T21:33:14.732Z,17.60
2019-03-28T21:36:02.130Z,17.30
2019-03-28T21:38:50.939Z,18.87
2019-03-28T21:41:39.801Z,17.93
2019-03-28T21:44:28.614Z,27.03
2019-03-28T21:47:17.438Z,17.77
2019-03-28T21:50:27.677Z,12.90
2019-03-28T21:53:19.974Z,23.53
2019-03-28T21:59:17.683Z,12.50
2019-03-28T22:05:35.267Z,13.50
2019-03-28T22:08:24.080Z,22.70
2019-03-28T22:11:12.904Z,22.40
2019-03-28T22:13:54.244Z,11.93
2019-03-28T22:16:43.075Z,23.23
2019-03-28T22:19:31.883Z,17.63
2019-03-28T22:22:20.695Z,14.55
2019-03-28T22:28:38.178Z,24.30
2019-03-28T22:31:28.451Z,14.33
2019-03-28T22:34:17.289Z,18.60
2019-03-28T22:37:06.077Z,20.03
2019-03-28T22:39:54.908Z,20.03
2019-03-28T22:42:43.710Z,14.13
2019-03-28T22:45:32.548Z,18.50
2019-03-28T22:48:21.354Z,20.87
2019-03-28T22:51:10.252Z,20.40
2019-03-28T22:53:59.045Z,18.60
2019-03-28T22:56:47.874Z,19.77
2019-03-28T22:59:36.670Z,12.07
2019-03-28T23:08:14.019Z,14.57
2019-03-28T23:11:02.813Z,18.00
2019-03-28T23:13:44.683Z,13.90
2019-03-28T23:16:33.595Z,17.43
2019-03-28T23:19:22.461Z,16.00
2019-03-28T23:22:11.388Z,19.37
2019-03-28T23:25:00.356Z,17.47
2019-03-28T23:27:49.239Z,14.30
2019-03-28T23:30:38.106Z,16.17
2019-03-28T23:33:27.346Z,18.63
2019-03-28T23:36:16.239Z,16.80
2019-03-28T23:39:26.367Z,17.50
2019-03-28T23:42:17.759Z,16.40
2019-03-28T23:45:26.741Z,18.93
2019-03-28T23:48:15.591Z,13.87
2019-03-28T23:51:04.447Z,16.60
2019-03-28T23:53:53.463Z,17.00
2019-03-28T23:56:42.367Z,17.93
